sensor_id;sensor_type;location;lat;lon;timestamp;pressure;altitude;pressure_sealevel;temperature;humidity
9935;BME280;5006;41.828;23.478;2023-01-28T00:00:56;89333.28;;;-0.95;100.00
9935;BME280;5006;41.828;23.478;2023-01-28T00:02:00;89346.69;;;-1.00;100.00
9935;BME280;5006;41.828;23.478;2023-01-28T00:03:06;89337.44;;;-0.94;100.00
9935;BME280;5006;41.828;23.478;2023-01-28T00:04:12;89335.50;;;-0.97;100.00
9935;BME280;5006;41.828;23.478;2023-01-28T00:05:16;89346.28;;;-1.02;100.00
9935;BME280;5006;41.828;23.478;2023-01-28T00:06:22;89343.56;;;-1.05;100.00
9935;BME280;5006;41.828;23.478;2023-01-28T00:07:28;89344.72;;;-1.03;100.00
9935;BME280;5006;41.828;23.478;2023-01-28T00:08:33;89346.00;;;-0.97;100.00
9935;BME280;5006;41.828;23.478;2023-01-28T00:09:38;89341.44;;;-1.00;100.00
9935;BME280;5006;41.828;23.478;2023-01-28T00:10:44;89352.69;;;-0.99;100.00
9935;BME280;5006;41.828;23.478;2023-01-28T00:11:49;89350.16;;;-0.96;100.00
9935;BME280;5006;41.828;23.478;2023-01-28T00:12:55;89343.09;;;-0.92;100.00
9935;BME280;5006;41.828;23.478;2023-01-28T00:13:59;89355.00;;;-0.98;100.00
9935;BME280;5006;41.828;23.478;2023-01-28T00:15:08;89339.91;;;-1.01;100.00
9935;BME280;5006;41.828;23.478;2023-01-28T00:16:14;89347.81;;;-1.01;100.00
9935;BME280;5006;41.828;23.478;2023-01-28T00:17:20;89356.84;;;-0.98;100.00
9935;BME280;5006;41.828;23.478;2023-01-28T00:18:24;89348.38;;;-0.92;100.00
9935;BME280;5006;41.828;23.478;2023-01-28T00:19:30;89341.59;;;-0.93;100.00
9935;BME280;5006;41.828;23.478;2023-01-28T00:20:35;89343.09;;;-0.92;100.00
9935;BME280;5006;41.828;23.478;2023-01-28T00:21:40;89340.56;;;-0.88;100.00
9935;BME280;5006;41.828;23.478;2023-01-28T00:22:47;89338.63;;;-0.91;100.00
9935;BME280;5006;41.828;23.478;2023-01-28T00:23:54;89337.94;;;-0.88;100.00
9935;BME280;5006;41.828;23.478;2023-01-28T00:24:59;89339.81;;;-0.89;100.00
9935;BME280;5006;41.828;23.478;2023-01-28T00:26:07;89339.13;;;-0.86;100.00
9935;BME280;5006;41.828;23.478;2023-01-28T00:27:13;89344.72;;;-0.87;100.00
9935;BME280;5006;41.828;23.478;2023-01-28T00:28:19;89351.19;;;-0.85;100.00
9935;BME280;5006;41.828;23.478;2023-01-28T00:29:24;89343.88;;;-0.76;100.00
9935;BME280;5006;41.828;23.478;2023-01-28T00:30:30;89358.19;;;-0.73;100.00
9935;BME280;5006;41.828;23.478;2023-01-28T00:31:34;89350.09;;;-0.65;100.00
9935;BME280;5006;41.828;23.478;2023-01-28T00:32:41;89349.78;;;-0.63;100.00
9935;BME280;5006;41.828;23.478;2023-01-28T00:33:47;89355.47;;;-0.61;100.00
9935;BME280;5006;41.828;23.478;2023-01-28T00:34:53;89350.56;;;-0.63;100.00
9935;BME280;5006;41.828;23.478;2023-01-28T00:35:59;89349.50;;;-0.58;100.00
9935;BME280;5006;41.828;23.478;2023-01-28T00:37:05;89348.53;;;-0.35;100.00
9935;BME280;5006;41.828;23.478;2023-01-28T00:38:11;89354.78;;;-0.24;100.00
9935;BME280;5006;41.828;23.478;2023-01-28T00:39:17;89347.72;;;-0.20;100.00
9935;BME280;5006;41.828;23.478;2023-01-28T00:40:22;89349.84;;;-0.07;100.00
9935;BME280;5006;41.828;23.478;2023-01-28T00:41:28;89349.44;;;-0.08;100.00
9935;BME280;5006;41.828;23.478;2023-01-28T00:42:36;89352.16;;;-0.05;100.00
9935;BME280;5006;41.828;23.478;2023-01-28T00:43:41;89345.84;;;-0.01;100.00
9935;BME280;5006;41.828;23.478;2023-01-28T00:44:47;89355.19;;;-0.03;100.00
9935;BME280;5006;41.828;23.478;2023-01-28T00:45:52;89368.78;;;-0.01;100.00
9935;BME280;5006;41.828;23.478;2023-01-28T00:46:58;89354.56;;;0.03;100.00
9935;BME280;5006;41.828;23.478;2023-01-28T00:48:04;89356.88;;;0.05;100.00
9935;BME280;5006;41.828;23.478;2023-01-28T00:49:10;89350.09;;;0.04;100.00
9935;BME280;5006;41.828;23.478;2023-01-28T00:50:15;89364.09;;;0.08;100.00
9935;BME280;5006;41.828;23.478;2023-01-28T00:51:21;89357.22;;;0.03;100.00
9935;BME280;5006;41.828;23.478;2023-01-28T00:52:27;89361.31;;;0.20;100.00
9935;BME280;5006;41.828;23.478;2023-01-28T00:53:35;89369.22;;;0.01;100.00
9935;BME280;5006;41.828;23.478;2023-01-28T00:54:40;89368.75;;;-0.04;100.00
9935;BME280;5006;41.828;23.478;2023-01-28T00:55:45;89360.47;;;-0.03;100.00
9935;BME280;5006;41.828;23.478;2023-01-28T00:56:50;89362.69;;;-0.05;100.00
9935;BME280;5006;41.828;23.478;2023-01-28T00:57:57;89364.00;;;-0.14;100.00
9935;BME280;5006;41.828;23.478;2023-01-28T00:59:01;89363.97;;;0.01;100.00
9935;BME280;5006;41.828;23.478;2023-01-28T01:00:08;89364.63;;;-0.21;100.00
9935;BME280;5006;41.828;23.478;2023-01-28T01:01:16;89356.31;;;-0.23;100.00
9935;BME280;5006;41.828;23.478;2023-01-28T01:02:22;89368.78;;;-0.20;100.00
9935;BME280;5006;41.828;23.478;2023-01-28T01:03:27;89373.72;;;-0.18;100.00
9935;BME280;5006;41.828;23.478;2023-01-28T01:04:33;89366.91;;;-0.19;100.00
9935;BME280;5006;41.828;23.478;2023-01-28T01:05:41;89361.22;;;-0.21;100.00
9935;BME280;5006;41.828;23.478;2023-01-28T01:06:46;89371.53;;;-0.13;100.00
9935;BME280;5006;41.828;23.478;2023-01-28T01:07:50;89369.97;;;-0.17;100.00
9935;BME280;5006;41.828;23.478;2023-01-28T01:08:58;89369.88;;;-0.21;100.00
9935;BME280;5006;41.828;23.478;2023-01-28T01:10:04;89361.50;;;-0.26;100.00
9935;BME280;5006;41.828;23.478;2023-01-28T01:11:11;89360.53;;;-0.18;100.00
9935;BME280;5006;41.828;23.478;2023-01-28T01:12:15;89365.81;;;-0.18;100.00
9935;BME280;5006;41.828;23.478;2023-01-28T01:13:21;89356.72;;;-0.21;100.00
9935;BME280;5006;41.828;23.478;2023-01-28T01:14:27;89364.34;;;-0.16;100.00
9935;BME280;5006;41.828;23.478;2023-01-28T01:15:32;89362.56;;;-0.12;100.00
9935;BME280;5006;41.828;23.478;2023-01-28T01:16:38;89358.84;;;-0.26;100.00
9935;BME280;5006;41.828;23.478;2023-01-28T01:17:44;89362.31;;;-0.22;100.00
9935;BME280;5006;41.828;23.478;2023-01-28T01:18:50;89361.72;;;-0.16;100.00
9935;BME280;5006;41.828;23.478;2023-01-28T01:19:56;89359.06;;;-0.16;100.00
9935;BME280;5006;41.828;23.478;2023-01-28T01:21:06;89366.25;;;-0.32;100.00
9935;BME280;5006;41.828;23.478;2023-01-28T01:22:11;89373.22;;;-0.24;100.00
9935;BME280;5006;41.828;23.478;2023-01-28T01:23:19;89355.94;;;-0.40;100.00
9935;BME280;5006;41.828;23.478;2023-01-28T01:24:25;89367.28;;;-0.36;100.00
9935;BME280;5006;41.828;23.478;2023-01-28T01:25:32;89370.34;;;-0.34;100.00
9935;BME280;5006;41.828;23.478;2023-01-28T01:26:37;89365.03;;;-0.38;100.00
9935;BME280;5006;41.828;23.478;2023-01-28T01:27:44;89368.00;;;-0.39;100.00
9935;BME280;5006;41.828;23.478;2023-01-28T01:28:49;89364.25;;;-0.38;100.00
9935;BME280;5006;41.828;23.478;2023-01-28T01:29:55;89364.56;;;-0.40;100.00
9935;BME280;5006;41.828;23.478;2023-01-28T01:31:00;89355.94;;;-0.40;100.00
9935;BME280;5006;41.828;23.478;2023-01-28T01:32:06;89366.59;;;-0.33;100.00
9935;BME280;5006;41.828;23.478;2023-01-28T01:33:11;89374.50;;;-0.33;100.00
9935;BME280;5006;41.828;23.478;2023-01-28T01:34:17;89371.81;;;-0.37;100.00
9935;BME280;5006;41.828;23.478;2023-01-28T01:35:22;89373.88;;;-0.46;100.00
9935;BME280;5006;41.828;23.478;2023-01-28T01:36:28;89376.22;;;-0.41;100.00
9935;BME280;5006;41.828;23.478;2023-01-28T01:37:34;89372.88;;;-0.57;100.00
9935;BME280;5006;41.828;23.478;2023-01-28T01:38:40;89374.81;;;-0.54;100.00
9935;BME280;5006;41.828;23.478;2023-01-28T01:39:47;89375.78;;;-0.62;100.00
9935;BME280;5006;41.828;23.478;2023-01-28T01:40:55;89375.41;;;-0.60;100.00
9935;BME280;5006;41.828;23.478;2023-01-28T01:42:01;89386.72;;;-0.75;100.00
9935;BME280;5006;41.828;23.478;2023-01-28T01:43:15;89377.81;;;-0.71;100.00
9935;BME280;5006;41.828;23.478;2023-01-28T01:44:57;89387.91;;;-0.88;100.00
9935;BME280;5006;41.828;23.478;2023-01-28T01:46:03;89367.47;;;-0.95;100.00
9935;BME280;5006;41.828;23.478;2023-01-28T01:47:08;89363.97;;;-0.83;100.00
9935;BME280;5006;41.828;23.478;2023-01-28T01:48:16;89383.06;;;-0.86;100.00
9935;BME280;5006;41.828;23.478;2023-01-28T01:49:26;89374.84;;;-0.85;100.00
9935;BME280;5006;41.828;23.478;2023-01-28T01:50:34;89373.06;;;-0.81;100.00
9935;BME280;5006;41.828;23.478;2023-01-28T01:51:42;89375.53;;;-0.88;100.00
9935;BME280;5006;41.828;23.478;2023-01-28T01:52:52;89373.06;;;-0.81;100.00
9935;BME280;5006;41.828;23.478;2023-01-28T01:53:59;89381.63;;;-0.84;100.00
9935;BME280;5006;41.828;23.478;2023-01-28T01:55:11;89371.72;;;-0.90;100.00
9935;BME280;5006;41.828;23.478;2023-01-28T01:56:20;89379.38;;;-1.01;100.00
9935;BME280;5006;41.828;23.478;2023-01-28T01:57:31;89377.56;;;-0.97;100.00
9935;BME280;5006;41.828;23.478;2023-01-28T01:58:39;89375.63;;;-1.00;100.00
9935;BME280;5006;41.828;23.478;2023-01-28T01:59:46;89380.19;;;-0.97;100.00
9935;BME280;5006;41.828;23.478;2023-01-28T02:00:52;89391.41;;;-1.00;100.00
9935;BME280;5006;41.828;23.478;2023-01-28T02:02:00;89390.13;;;-1.06;100.00
9935;BME280;5006;41.828;23.478;2023-01-28T02:03:07;89396.50;;;-1.07;100.00
9935;BME280;5006;41.828;23.478;2023-01-28T02:04:18;89387.41;;;-1.09;100.00
9935;BME280;5006;41.828;23.478;2023-01-28T02:05:24;89386.06;;;-1.03;100.00
9935;BME280;5006;41.828;23.478;2023-01-28T02:06:30;89399.72;;;-1.13;100.00
9935;BME280;5006;41.828;23.478;2023-01-28T02:07:36;89394.34;;;-1.17;100.00
9935;BME280;5006;41.828;23.478;2023-01-28T02:08:43;89382.31;;;-1.18;100.00
9935;BME280;5006;41.828;23.478;2023-01-28T02:09:48;89407.56;;;-1.29;100.00
9935;BME280;5006;41.828;23.478;2023-01-28T02:11:00;89390.19;;;-1.18;100.00
9935;BME280;5006;41.828;23.478;2023-01-28T02:12:10;89391.06;;;-1.14;100.00
9935;BME280;5006;41.828;23.478;2023-01-28T02:13:19;89379.34;;;-1.16;100.00
9935;BME280;5006;41.828;23.478;2023-01-28T02:14:28;89412.69;;;-1.20;100.00
9935;BME280;5006;41.828;23.478;2023-01-28T02:15:35;89390.03;;;-1.25;100.00
9935;BME280;5006;41.828;23.478;2023-01-28T02:16:40;89398.34;;;-1.23;100.00
9935;BME280;5006;41.828;23.478;2023-01-28T02:17:47;89397.25;;;-1.22;100.00
9935;BME280;5006;41.828;23.478;2023-01-28T02:18:53;89397.94;;;-1.25;100.00
9935;BME280;5006;41.828;23.478;2023-01-28T02:20:00;89408.44;;;-1.25;100.00
9935;BME280;5006;41.828;23.478;2023-01-28T02:21:30;89405.13;;;-1.22;100.00
9935;BME280;5006;41.828;23.478;2023-01-28T02:22:51;89388.09;;;-1.12;100.00
9935;BME280;5006;41.828;23.478;2023-01-28T02:24:28;89407.50;;;-1.17;100.00
9935;BME280;5006;41.828;23.478;2023-01-28T02:27:25;89404.47;;;-1.19;100.00
9935;BME280;5006;41.828;23.478;2023-01-28T02:28:39;89414.72;;;-1.29;100.00
9935;BME280;5006;41.828;23.478;2023-01-28T02:29:53;89402.00;;;-1.27;100.00
9935;BME280;5006;41.828;23.478;2023-01-28T02:31:04;89395.09;;;-1.32;100.00
9935;BME280;5006;41.828;23.478;2023-01-28T02:32:17;89406.50;;;-1.28;100.00
9935;BME280;5006;41.828;23.478;2023-01-28T02:33:28;89414.19;;;-1.35;100.00
9935;BME280;5006;41.828;23.478;2023-01-28T02:34:40;89408.75;;;-1.42;100.00
9935;BME280;5006;41.828;23.478;2023-01-28T02:35:50;89395.47;;;-1.33;100.00
9935;BME280;5006;41.828;23.478;2023-01-28T02:36:59;89404.88;;;-1.32;100.00
9935;BME280;5006;41.828;23.478;2023-01-28T02:38:10;89407.75;;;-1.37;100.00
9935;BME280;5006;41.828;23.478;2023-01-28T02:39:19;89399.09;;;-1.38;100.00
9935;BME280;5006;41.828;23.478;2023-01-28T02:40:29;89407.22;;;-1.43;100.00
9935;BME280;5006;41.828;23.478;2023-01-28T02:41:40;89399.59;;;-1.48;100.00
9935;BME280;5006;41.828;23.478;2023-01-28T02:42:47;89381.19;;;-1.48;100.00
9935;BME280;5006;41.828;23.478;2023-01-28T02:43:54;89410.28;;;-1.41;100.00
9935;BME280;5006;41.828;23.478;2023-01-28T02:44:59;89404.84;;;-1.48;100.00
9935;BME280;5006;41.828;23.478;2023-01-28T02:46:13;89407.78;;;-1.49;100.00
9935;BME280;5006;41.828;23.478;2023-01-28T02:47:38;89403.31;;;-1.49;100.00
9935;BME280;5006;41.828;23.478;2023-01-28T02:49:07;89407.53;;;-1.60;100.00
9935;BME280;5006;41.828;23.478;2023-01-28T02:50:15;89406.00;;;-1.61;100.00
9935;BME280;5006;41.828;23.478;2023-01-28T02:51:28;89406.09;;;-1.57;100.00
9935;BME280;5006;41.828;23.478;2023-01-28T02:52:47;89411.38;;;-1.57;100.00
9935;BME280;5006;41.828;23.478;2023-01-28T02:54:13;89399.84;;;-1.53;100.00
9935;BME280;5006;41.828;23.478;2023-01-28T02:55:29;89398.53;;;-1.59;100.00
9935;BME280;5006;41.828;23.478;2023-01-28T02:56:42;89415.22;;;-1.67;100.00
9935;BME280;5006;41.828;23.478;2023-01-28T02:57:57;89400.66;;;-1.64;100.00
9935;BME280;5006;41.828;23.478;2023-01-28T02:59:10;89406.25;;;-1.66;100.00
9935;BME280;5006;41.828;23.478;2023-01-28T03:00:44;89429.22;;;-1.63;100.00
9935;BME280;5006;41.828;23.478;2023-01-28T03:01:56;89407.09;;;-1.62;100.00
9935;BME280;5006;41.828;23.478;2023-01-28T03:03:14;89422.78;;;-1.65;100.00
9935;BME280;5006;41.828;23.478;2023-01-28T03:04:25;89404.69;;;-1.67;100.00
9935;BME280;5006;41.828;23.478;2023-01-28T03:05:35;89407.34;;;-1.67;100.00
9935;BME280;5006;41.828;23.478;2023-01-28T03:06:45;89428.34;;;-1.67;100.00
9935;BME280;5006;41.828;23.478;2023-01-28T03:07:52;89422.91;;;-1.74;100.00
9935;BME280;5006;41.828;23.478;2023-01-28T03:09:01;89416.56;;;-1.73;100.00
9935;BME280;5006;41.828;23.478;2023-01-28T03:10:26;89424.03;;;-1.75;100.00
9935;BME280;5006;41.828;23.478;2023-01-28T03:11:34;89419.50;;;-1.74;100.00
9935;BME280;5006;41.828;23.478;2023-01-28T03:12:58;89423.03;;;-1.70;100.00
9935;BME280;5006;41.828;23.478;2023-01-28T03:14:24;89421.03;;;-1.73;100.00
9935;BME280;5006;41.828;23.478;2023-01-28T03:15:48;89425.03;;;-1.79;100.00
9935;BME280;5006;41.828;23.478;2023-01-28T03:17:16;89424.03;;;-1.75;100.00
9935;BME280;5006;41.828;23.478;2023-01-28T03:18:44;89427.13;;;-1.85;100.00
9935;BME280;5006;41.828;23.478;2023-01-28T03:20:10;89425.59;;;-1.86;100.00
9935;BME280;5006;41.828;23.478;2023-01-28T03:21:38;89422.41;;;-1.79;100.00
9935;BME280;5006;41.828;23.478;2023-01-28T03:23:10;89426.25;;;-1.89;100.00
9935;BME280;5006;41.828;23.478;2023-01-28T03:24:44;89418.56;;;-1.82;100.00
9935;BME280;5006;41.828;23.478;2023-01-28T03:26:10;89428.31;;;-1.82;100.00
9935;BME280;5006;41.828;23.478;2023-01-28T03:27:38;89428.31;;;-1.82;100.00
9935;BME280;5006;41.828;23.478;2023-01-28T03:29:09;89429.84;;;-1.81;100.00
9935;BME280;5006;41.828;23.478;2023-01-28T03:30:44;89422.06;;;-1.78;100.00
9935;BME280;5006;41.828;23.478;2023-01-28T03:32:17;89424.13;;;-1.71;100.00
9935;BME280;5006;41.828;23.478;2023-01-28T03:33:42;89423.66;;;-1.73;100.00
9935;BME280;5006;41.828;23.478;2023-01-28T03:35:07;89441.31;;;-1.74;100.00
9935;BME280;5006;41.828;23.478;2023-01-28T03:36:32;89421.03;;;-1.73;100.00
9935;BME280;5006;41.828;23.478;2023-01-28T03:38:12;89427.50;;;-1.71;100.00
9935;BME280;5006;41.828;23.478;2023-01-28T03:39:27;89423.03;;;-1.70;100.00
9935;BME280;5006;41.828;23.478;2023-01-28T03:40:33;89424.88;;;-1.71;100.00
9935;BME280;5006;41.828;23.478;2023-01-28T03:41:39;89433.72;;;-1.63;100.00
9935;BME280;5006;41.828;23.478;2023-01-28T03:42:43;89419.03;;;-1.64;100.00
9935;BME280;5006;41.828;23.478;2023-01-28T03:44:08;89425.41;;;-1.65;100.00
9935;BME280;5006;41.828;23.478;2023-01-28T03:45:30;89430.41;;;-1.60;100.00
9935;BME280;5006;41.828;23.478;2023-01-28T03:46:39;89424.06;;;-1.59;100.00
9935;BME280;5006;41.828;23.478;2023-01-28T03:47:44;89428.88;;;-1.61;100.00
9935;BME280;5006;41.828;23.478;2023-01-28T03:48:50;89430.34;;;-1.64;100.00
9935;BME280;5006;41.828;23.478;2023-01-28T03:49:57;89424.31;;;-1.64;100.00
9935;BME280;5006;41.828;23.478;2023-01-28T03:51:05;89427.44;;;-1.59;100.00
9935;BME280;5006;41.828;23.478;2023-01-28T03:52:11;89433.56;;;-1.55;100.00
9935;BME280;5006;41.828;23.478;2023-01-28T03:53:18;89426.78;;;-1.56;100.00
9935;BME280;5006;41.828;23.478;2023-01-28T03:54:24;89423.03;;;-1.55;100.00
9935;BME280;5006;41.828;23.478;2023-01-28T03:55:29;89420.19;;;-1.50;100.00
9935;BME280;5006;41.828;23.478;2023-01-28T03:56:34;89424.16;;;-1.56;100.00
9935;BME280;5006;41.828;23.478;2023-01-28T03:57:44;89424.16;;;-1.56;100.00
9935;BME280;5006;41.828;23.478;2023-01-28T03:58:49;89430.75;;;-1.62;100.00
9935;BME280;5006;41.828;23.478;2023-01-28T04:00:01;89428.66;;;-1.56;100.00
9935;BME280;5006;41.828;23.478;2023-01-28T04:01:06;89430.75;;;-1.62;100.00
9935;BME280;5006;41.828;23.478;2023-01-28T04:02:13;89429.56;;;-1.64;100.00
9935;BME280;5006;41.828;23.478;2023-01-28T04:03:20;89427.69;;;-1.64;100.00
9935;BME280;5006;41.828;23.478;2023-01-28T04:04:40;89428.28;;;-1.70;100.00
9935;BME280;5006;41.828;23.478;2023-01-28T04:05:57;89431.91;;;-1.75;100.00
9935;BME280;5006;41.828;23.478;2023-01-28T04:07:02;89428.84;;;-1.77;100.00
9935;BME280;5006;41.828;23.478;2023-01-28T04:08:37;89437.38;;;-1.80;100.00
9935;BME280;5006;41.828;23.478;2023-01-28T04:09:58;89444.09;;;-1.82;100.00
9935;BME280;5006;41.828;23.478;2023-01-28T04:11:20;89438.06;;;-1.83;100.00
9935;BME280;5006;41.828;23.478;2023-01-28T04:12:28;89441.09;;;-1.81;100.00
9935;BME280;5006;41.828;23.478;2023-01-28T04:13:34;89441.25;;;-1.89;100.00
9935;BME280;5006;41.828;23.478;2023-01-28T04:14:39;89441.66;;;-1.87;100.00
9935;BME280;5006;41.828;23.478;2023-01-28T04:15:49;89454.50;;;-1.86;100.00
9935;BME280;5006;41.828;23.478;2023-01-28T04:16:55;89438.19;;;-1.91;100.00
9935;BME280;5006;41.828;23.478;2023-01-28T04:18:04;89437.44;;;-1.92;100.00
9935;BME280;5006;41.828;23.478;2023-01-28T04:19:12;89438.34;;;-2.00;100.00
9935;BME280;5006;41.828;23.478;2023-01-28T04:20:18;89442.91;;;-1.97;100.00
9935;BME280;5006;41.828;23.478;2023-01-28T04:21:23;89446.75;;;-1.94;100.00
9935;BME280;5006;41.828;23.478;2023-01-28T04:22:29;89448.16;;;-1.97;100.00
9935;BME280;5006;41.828;23.478;2023-01-28T04:23:34;89440.59;;;-1.98;100.00
9935;BME280;5006;41.828;23.478;2023-01-28T04:24:41;89439.84;;;-1.99;100.00
9935;BME280;5006;41.828;23.478;2023-01-28T04:25:49;89447.50;;;-1.94;100.00
9935;BME280;5006;41.828;23.478;2023-01-28T04:26:55;89447.50;;;-1.94;100.00
9935;BME280;5006;41.828;23.478;2023-01-28T04:28:01;89446.50;;;-1.89;100.00
9935;BME280;5006;41.828;23.478;2023-01-28T04:29:08;89440.06;;;-1.92;100.00
9935;BME280;5006;41.828;23.478;2023-01-28T04:30:15;89459.97;;;-1.91;100.00
9935;BME280;5006;41.828;23.478;2023-01-28T04:31:26;89446.75;;;-1.94;100.00
9935;BME280;5006;41.828;23.478;2023-01-28T04:32:45;89454.94;;;-1.96;100.00
9935;BME280;5006;41.828;23.478;2023-01-28T04:34:09;89450.47;;;-1.95;100.00
9935;BME280;5006;41.828;23.478;2023-01-28T04:35:53;89455.06;;;-1.92;100.00
9935;BME280;5006;41.828;23.478;2023-01-28T04:37:14;89460.41;;;-1.89;100.00
9935;BME280;5006;41.828;23.478;2023-01-28T04:38:45;89450.56;;;-1.92;100.00
9935;BME280;5006;41.828;23.478;2023-01-28T04:40:19;89448.81;;;-1.88;100.00
9935;BME280;5006;41.828;23.478;2023-01-28T04:41:39;89455.75;;;-1.80;100.00
9935;BME280;5006;41.828;23.478;2023-01-28T04:42:56;89451.84;;;-1.86;100.00
9935;BME280;5006;41.828;23.478;2023-01-28T04:44:14;89458.63;;;-1.85;100.00
9935;BME280;5006;41.828;23.478;2023-01-28T04:45:43;89457.31;;;-1.79;100.00
9935;BME280;5006;41.828;23.478;2023-01-28T04:47:06;89456.13;;;-1.81;100.00
9935;BME280;5006;41.828;23.478;2023-01-28T04:48:32;89461.69;;;-1.83;100.00
9935;BME280;5006;41.828;23.478;2023-01-28T04:49:55;89454.50;;;-1.86;100.00
9935;BME280;5006;41.828;23.478;2023-01-28T04:51:11;89461.38;;;-1.81;100.00
9935;BME280;5006;41.828;23.478;2023-01-28T04:52:36;89461.03;;;-1.80;100.00
9935;BME280;5006;41.828;23.478;2023-01-28T04:53:53;89460.03;;;-1.75;100.00
9935;BME280;5006;41.828;23.478;2023-01-28T04:55:05;89466.72;;;-1.78;100.00
9935;BME280;5006;41.828;23.478;2023-01-28T04:56:10;89459.75;;;-1.86;100.00
9935;BME280;5006;41.828;23.478;2023-01-28T04:57:16;89465.94;;;-1.78;100.00
9935;BME280;5006;41.828;23.478;2023-01-28T04:58:21;89467.91;;;-1.75;100.00
9935;BME280;5006;41.828;23.478;2023-01-28T04:59:30;89468.59;;;-1.78;100.00
9935;BME280;5006;41.828;23.478;2023-01-28T05:00:34;89469.34;;;-1.78;100.00
9935;BME280;5006;41.828;23.478;2023-01-28T05:01:40;89458.84;;;-1.78;100.00
9935;BME280;5006;41.828;23.478;2023-01-28T05:02:45;89479.09;;;-1.78;100.00
9935;BME280;5006;41.828;23.478;2023-01-28T05:03:51;89475.22;;;-1.69;100.00
9935;BME280;5006;41.828;23.478;2023-01-28T05:05:03;89471.75;;;-1.73;100.00
9935;BME280;5006;41.828;23.478;2023-01-28T05:06:22;89474.47;;;-1.69;100.00
9935;BME280;5006;41.828;23.478;2023-01-28T05:07:32;89479.84;;;-1.66;100.00
9935;BME280;5006;41.828;23.478;2023-01-28T05:08:36;89464.97;;;-1.74;100.00
9935;BME280;5006;41.828;23.478;2023-01-28T05:09:42;89472.84;;;-1.74;100.00
9935;BME280;5006;41.828;23.478;2023-01-28T05:10:47;89478.22;;;-1.82;100.00
9935;BME280;5006;41.828;23.478;2023-01-28T05:11:53;89482.16;;;-1.76;100.00
9935;BME280;5006;41.828;23.478;2023-01-28T05:12:57;89476.13;;;-1.77;100.00
9935;BME280;5006;41.828;23.478;2023-01-28T05:14:03;89480.97;;;-1.79;100.00
9935;BME280;5006;41.828;23.478;2023-01-28T05:15:17;89472.72;;;-1.77;100.00
9935;BME280;5006;41.828;23.478;2023-01-28T05:16:24;89473.09;;;-1.79;100.00
9935;BME280;5006;41.828;23.478;2023-01-28T05:17:30;89482.28;;;-1.85;100.00
9935;BME280;5006;41.828;23.478;2023-01-28T05:18:35;89470.88;;;-1.77;100.00
9935;BME280;5006;41.828;23.478;2023-01-28T05:19:47;89488.94;;;-1.87;100.00
9935;BME280;5006;41.828;23.478;2023-01-28T05:20:59;89488.88;;;-1.91;100.00
9935;BME280;5006;41.828;23.478;2023-01-28T05:22:04;89492.69;;;-1.88;100.00
9935;BME280;5006;41.828;23.478;2023-01-28T05:23:16;89483.69;;;-1.87;100.00
9935;BME280;5006;41.828;23.478;2023-01-28T05:24:28;89483.50;;;-1.94;100.00
9935;BME280;5006;41.828;23.478;2023-01-28T05:25:33;89489.50;;;-1.94;100.00
9935;BME280;5006;41.828;23.478;2023-01-28T05:26:39;89488.00;;;-1.95;100.00
9935;BME280;5006;41.828;23.478;2023-01-28T05:27:48;89481.31;;;-1.92;100.00
9935;BME280;5006;41.828;23.478;2023-01-28T05:28:55;89489.75;;;-1.99;100.00
9935;BME280;5006;41.828;23.478;2023-01-28T05:29:59;89488.66;;;-1.98;100.00
9935;BME280;5006;41.828;23.478;2023-01-28T05:31:06;89490.97;;;-1.96;100.00
9935;BME280;5006;41.828;23.478;2023-01-28T05:32:12;89495.44;;;-1.97;100.00
9935;BME280;5006;41.828;23.478;2023-01-28T05:33:17;89492.81;;;-1.97;100.00
9935;BME280;5006;41.828;23.478;2023-01-28T05:34:22;89496.44;;;-2.01;100.00
9935;BME280;5006;41.828;23.478;2023-01-28T05:35:29;89489.31;;;-2.01;100.00
9935;BME280;5006;41.828;23.478;2023-01-28T05:36:35;89491.41;;;-1.94;100.00
9935;BME280;5006;41.828;23.478;2023-01-28T05:37:51;89507.38;;;-1.99;100.00
9935;BME280;5006;41.828;23.478;2023-01-28T05:38:56;89506.50;;;-2.03;100.00
9935;BME280;5006;41.828;23.478;2023-01-28T05:40:01;89502.66;;;-2.06;100.00
9935;BME280;5006;41.828;23.478;2023-01-28T05:41:06;89506.50;;;-2.03;100.00
9935;BME280;5006;41.828;23.478;2023-01-28T05:42:13;89499.06;;;-2.01;100.00
9935;BME280;5006;41.828;23.478;2023-01-28T05:43:22;89504.19;;;-2.05;100.00
9935;BME280;5006;41.828;23.478;2023-01-28T05:44:47;89507.59;;;-2.04;100.00
9935;BME280;5006;41.828;23.478;2023-01-28T05:46:01;89513.28;;;-2.02;100.00
9935;BME280;5006;41.828;23.478;2023-01-28T05:47:30;89515.47;;;-2.04;100.00
9935;BME280;5006;41.828;23.478;2023-01-28T05:48:54;89514.28;;;-2.07;100.00
9935;BME280;5006;41.828;23.478;2023-01-28T05:50:12;89521.59;;;-2.00;100.00
9935;BME280;5006;41.828;23.478;2023-01-28T05:51:24;89517.31;;;-2.05;100.00
9935;BME280;5006;41.828;23.478;2023-01-28T05:52:34;89514.69;;;-2.05;100.00
9935;BME280;5006;41.828;23.478;2023-01-28T05:53:40;89525.56;;;-2.06;100.00
9935;BME280;5006;41.828;23.478;2023-01-28T05:54:45;89520.50;;;-2.11;100.00
9935;BME280;5006;41.828;23.478;2023-01-28T05:55:52;89525.66;;;-2.03;100.00
9935;BME280;5006;41.828;23.478;2023-01-28T05:56:57;89541.84;;;-2.01;100.00
9935;BME280;5006;41.828;23.478;2023-01-28T05:58:03;89532.63;;;-1.95;100.00
9935;BME280;5006;41.828;23.478;2023-01-28T05:59:09;89534.84;;;-1.97;100.00
9935;BME280;5006;41.828;23.478;2023-01-28T06:00:19;89531.44;;;-1.85;100.00
9935;BME280;5006;41.828;23.478;2023-01-28T06:01:23;89534.06;;;-1.85;100.00
9935;BME280;5006;41.828;23.478;2023-01-28T06:02:32;89522.13;;;-1.83;100.00
9935;BME280;5006;41.828;23.478;2023-01-28T06:03:37;89535.91;;;-1.74;100.00
9935;BME280;5006;41.828;23.478;2023-01-28T06:04:43;89532.94;;;-1.72;100.00
9935;BME280;5006;41.828;23.478;2023-01-28T06:05:48;89524.00;;;-1.83;100.00
9935;BME280;5006;41.828;23.478;2023-01-28T06:06:53;89535.03;;;-1.78;100.00
9935;BME280;5006;41.828;23.478;2023-01-28T06:07:59;89529.28;;;-1.68;100.00
9935;BME280;5006;41.828;23.478;2023-01-28T06:09:06;89538.94;;;-1.72;100.00
9935;BME280;5006;41.828;23.478;2023-01-28T06:10:12;89552.94;;;-1.68;100.00
9935;BME280;5006;41.828;23.478;2023-01-28T06:11:18;89538.53;;;-1.74;100.00
9935;BME280;5006;41.828;23.478;2023-01-28T06:12:23;89548.78;;;-1.69;100.00
9935;BME280;5006;41.828;23.478;2023-01-28T06:13:49;89555.00;;;-1.61;100.00
9935;BME280;5006;41.828;23.478;2023-01-28T06:15:04;89551.78;;;-1.70;100.00
9935;BME280;5006;41.828;23.478;2023-01-28T06:16:25;89551.09;;;-1.67;100.00